createdAt,value
2023-01-29T00:00:20.013Z,58.14
2023-01-29T00:02:50.074Z,58.22
2023-01-29T00:05:27.948Z,58.67
2023-01-29T00:07:58.441Z,58.38
2023-01-29T00:10:27.551Z,58.67
2023-01-29T00:12:56.439Z,58.82
2023-01-29T00:15:25.030Z,59.39
2023-01-29T00:17:55.027Z,59.64
2023-01-29T00:20:23.571Z,60.00
2023-01-29T00:22:52.110Z,60.20
2023-01-29T00:25:20.685Z,60.11
2023-01-29T00:27:49.265Z,60.23
2023-01-29T00:30:20.112Z,60.23
2023-01-29T00:32:49.049Z,60.57
2023-01-29T00:35:19.128Z,60.56
2023-01-29T00:37:47.935Z,60.65
2023-01-29T00:40:16.811Z,60.89
2023-01-29T00:43:03.700Z,60.24
2023-01-29T00:45:32.267Z,60.16
2023-01-29T00:48:01.015Z,60.79
2023-01-29T00:50:31.476Z,60.82
2023-01-29T00:53:00.012Z,60.47
2023-01-29T00:55:28.666Z,60.90
2023-01-29T00:57:57.218Z,60.08
2023-01-29T01:00:26.182Z,59.98
2023-01-29T01:03:08.999Z,59.75
2023-01-29T01:05:39.336Z,59.97
2023-01-29T01:08:28.956Z,59.67
2023-01-29T01:11:04.108Z,59.83
2023-01-29T01:13:33.707Z,59.91
2023-01-29T01:16:02.647Z,60.73
2023-01-29T01:18:31.794Z,60.15
2023-01-29T01:21:01.888Z,60.59
2023-01-29T01:23:30.411Z,60.80
2023-01-29T01:25:59.292Z,61.06
2023-01-29T01:28:28.156Z,60.97
2023-01-29T01:30:56.867Z,60.75
2023-01-29T01:33:25.457Z,60.64
2023-01-29T01:35:54.031Z,60.62
2023-01-29T01:38:24.364Z,60.81
2023-01-29T01:40:52.864Z,61.08
2023-01-29T01:43:22.875Z,61.67
2023-01-29T01:45:51.429Z,61.61
2023-01-29T01:48:23.260Z,61.82
2023-01-29T01:50:54.763Z,61.43
2023-01-29T01:53:30.929Z,60.90
2023-01-29T01:56:05.052Z,60.66
2023-01-29T01:58:37.800Z,60.67
2023-01-29T02:01:09.004Z,61.47
2023-01-29T02:04:01.930Z,61.61
2023-01-29T02:06:49.253Z,61.57
2023-01-29T02:09:33.691Z,61.52
2023-01-29T02:12:02.849Z,61.84
2023-01-29T02:14:34.619Z,62.84
2023-01-29T02:17:03.664Z,62.52
2023-01-29T02:19:42.994Z,62.69
2023-01-29T02:22:39.979Z,61.98
2023-01-29T02:25:35.640Z,61.73
2023-01-29T02:28:22.154Z,61.69
2023-01-29T02:31:00.371Z,62.05
2023-01-29T02:33:38.284Z,61.91
2023-01-29T02:36:18.096Z,62.11
2023-01-29T02:38:56.217Z,62.29
2023-01-29T02:41:30.340Z,62.29
2023-01-29T02:44:08.071Z,62.34
2023-01-29T02:46:42.602Z,62.40
2023-01-29T02:49:19.172Z,62.51
2023-01-29T02:51:55.166Z,62.59
2023-01-29T02:54:27.484Z,62.63
2023-01-29T02:57:00.133Z,62.41
2023-01-29T02:59:36.898Z,62.21
2023-01-29T03:02:11.235Z,62.74
2023-01-29T03:04:46.746Z,62.97
2023-01-29T03:07:39.729Z,63.40
2023-01-29T03:10:16.092Z,63.02
2023-01-29T03:12:48.883Z,62.93
2023-01-29T03:15:25.350Z,63.13
2023-01-29T03:18:21.682Z,63.04
2023-01-29T03:20:54.828Z,63.17
2023-01-29T03:23:42.689Z,63.15
2023-01-29T03:26:30.519Z,63.41
2023-01-29T03:29:18.901Z,63.33
2023-01-29T03:32:05.591Z,63.40
2023-01-29T03:34:39.811Z,63.48
2023-01-29T03:37:15.375Z,63.36
2023-01-29T03:39:44.155Z,63.43
2023-01-29T03:42:23.297Z,63.54
2023-01-29T03:45:00.580Z,63.35
2023-01-29T03:47:45.142Z,63.47
2023-01-29T03:50:31.221Z,63.63
2023-01-29T03:53:08.550Z,64.17
2023-01-29T03:55:41.994Z,64.14
2023-01-29T03:58:22.421Z,64.06
2023-01-29T04:00:57.097Z,64.03
2023-01-29T04:03:34.296Z,64.25
2023-01-29T04:06:11.015Z,64.28
2023-01-29T04:09:04.337Z,64.35
2023-01-29T04:11:36.735Z,63.88
2023-01-29T04:14:05.609Z,64.07
2023-01-29T04:16:38.153Z,63.88
2023-01-29T04:19:37.469Z,64.38
2023-01-29T04:22:12.771Z,64.53
2023-01-29T04:24:42.873Z,64.25
2023-01-29T04:27:28.358Z,64.42
2023-01-29T04:30:21.160Z,64.68
2023-01-29T04:33:01.607Z,65.09
2023-01-29T04:35:38.339Z,64.88
2023-01-29T04:38:13.934Z,64.51
2023-01-29T04:40:52.431Z,65.10
2023-01-29T04:43:29.963Z,64.82
2023-01-29T04:46:12.154Z,64.29
2023-01-29T04:48:52.747Z,64.97
2023-01-29T04:51:27.154Z,64.88
2023-01-29T04:54:03.900Z,65.22
2023-01-29T04:56:40.713Z,65.27
2023-01-29T04:59:14.411Z,64.98
2023-01-29T05:01:54.604Z,65.45
2023-01-29T05:04:28.824Z,65.37
2023-01-29T05:06:59.927Z,65.68
2023-01-29T05:09:28.714Z,65.62
2023-01-29T05:11:58.033Z,65.54
2023-01-29T05:14:30.688Z,65.35
2023-01-29T05:17:03.553Z,65.60
2023-01-29T05:19:32.190Z,65.57
2023-01-29T05:22:02.258Z,65.91
2023-01-29T05:24:30.835Z,65.77
2023-01-29T05:27:16.865Z,65.79
2023-01-29T05:29:48.244Z,65.49
2023-01-29T05:32:17.340Z,66.09
2023-01-29T05:34:45.692Z,65.88
2023-01-29T05:37:15.757Z,65.95
2023-01-29T05:39:44.236Z,65.96
2023-01-29T05:42:12.787Z,66.28
2023-01-29T05:44:41.346Z,65.95
2023-01-29T05:47:09.922Z,65.91
2023-01-29T05:49:38.844Z,65.86
2023-01-29T05:52:07.369Z,66.19
2023-01-29T05:54:37.320Z,66.03
2023-01-29T05:57:05.991Z,66.15
2023-01-29T05:59:34.508Z,66.12
2023-01-29T06:02:02.967Z,66.15
2023-01-29T06:04:31.510Z,66.03
2023-01-29T06:07:01.328Z,66.05
2023-01-29T06:09:29.778Z,66.09
2023-01-29T06:11:59.707Z,65.73
2023-01-29T06:14:28.192Z,65.91
2023-01-29T06:16:56.823Z,66.38
2023-01-29T06:19:25.381Z,66.82
2023-01-29T06:21:53.800Z,66.98
2023-01-29T06:24:22.390Z,66.77
2023-01-29T06:26:50.937Z,67.13
2023-01-29T06:29:21.224Z,66.73
2023-01-29T06:31:49.881Z,67.14
2023-01-29T06:34:19.420Z,67.13
2023-01-29T06:36:48.088Z,67.05
2023-01-29T06:39:16.796Z,66.93
2023-01-29T06:41:46.715Z,66.65
2023-01-29T06:44:15.337Z,66.49
2023-01-29T06:46:45.301Z,66.15
2023-01-29T06:49:13.883Z,66.25
2023-01-29T06:51:42.440Z,66.20
2023-01-29T06:54:11.206Z,66.31
2023-01-29T06:56:39.732Z,66.38
2023-01-29T06:59:08.176Z,66.67
2023-01-29T07:01:36.885Z,66.20
2023-01-29T07:04:07.130Z,65.63
2023-01-29T07:06:36.411Z,65.82
2023-01-29T07:09:05.280Z,65.40
2023-01-29T07:11:35.663Z,65.34
2023-01-29T07:14:04.081Z,65.58
2023-01-29T07:16:32.762Z,65.18
2023-01-29T07:19:01.383Z,65.08
2023-01-29T07:21:31.315Z,65.17
2023-01-29T07:23:59.948Z,64.91
2023-01-29T07:26:28.514Z,65.30
2023-01-29T07:28:56.986Z,65.48
2023-01-29T07:31:25.587Z,63.99
2023-01-29T07:33:54.110Z,64.34
2023-01-29T07:36:22.557Z,64.50
2023-01-29T07:38:52.859Z,65.05
2023-01-29T07:41:21.514Z,65.16
2023-01-29T07:43:50.238Z,65.13
2023-01-29T07:46:18.819Z,65.14
2023-01-29T07:48:47.413Z,64.94
2023-01-29T07:51:17.275Z,65.04
2023-01-29T07:53:45.713Z,64.99
2023-01-29T07:56:15.679Z,64.33
2023-01-29T07:58:44.144Z,63.96
2023-01-29T08:01:12.677Z,63.45
2023-01-29T08:03:41.436Z,63.59
2023-01-29T08:06:10.045Z,63.71
2023-01-29T08:08:38.582Z,63.91
2023-01-29T08:11:07.461Z,64.57
2023-01-29T08:13:37.437Z,65.04
2023-01-29T08:16:06.942Z,64.71
2023-01-29T08:18:35.609Z,64.50
2023-01-29T08:21:04.398Z,63.21
2023-01-29T08:23:32.940Z,62.46
2023-01-29T08:26:03.385Z,61.57
2023-01-29T08:28:31.935Z,61.04
2023-01-29T08:31:02.090Z,59.94
2023-01-29T08:33:38.711Z,59.52
2023-01-29T08:36:09.334Z,58.18
2023-01-29T08:38:37.809Z,57.76
2023-01-29T08:41:06.763Z,57.29
2023-01-29T08:43:37.234Z,56.51
2023-01-29T08:46:08.025Z,55.75
2023-01-29T08:48:36.699Z,55.21
2023-01-29T08:51:05.695Z,55.00
2023-01-29T08:53:34.641Z,53.99
2023-01-29T08:56:03.284Z,53.89
2023-01-29T08:58:31.868Z,54.21
2023-01-29T09:01:09.200Z,53.48
2023-01-29T09:03:41.054Z,54.11
2023-01-29T09:06:11.044Z,53.35
2023-01-29T09:08:39.903Z,53.54
2023-01-29T09:11:09.234Z,53.38
2023-01-29T09:13:37.925Z,53.78
2023-01-29T09:16:08.663Z,52.68
2023-01-29T09:18:37.161Z,52.25
2023-01-29T09:21:06.169Z,51.86
2023-01-29T09:23:35.168Z,51.45
2023-01-29T09:26:03.677Z,51.51
2023-01-29T09:28:32.210Z,52.06
2023-01-29T09:31:02.997Z,51.04
2023-01-29T09:33:33.734Z,50.69
2023-01-29T09:36:04.496Z,50.64
2023-01-29T09:38:33.033Z,51.11
2023-01-29T09:41:10.299Z,50.58
2023-01-29T09:43:46.593Z,50.29
2023-01-29T09:46:22.069Z,50.07
2023-01-29T09:48:59.151Z,48.94
2023-01-29T09:51:35.602Z,47.61
2023-01-29T09:54:16.189Z,47.97
2023-01-29T09:56:47.084Z,47.87
2023-01-29T09:59:19.792Z,48.06
2023-01-29T10:02:01.136Z,47.50
2023-01-29T10:05:10.230Z,46.98
2023-01-29T10:08:02.808Z,47.76
2023-01-29T10:10:44.500Z,47.82
2023-01-29T10:13:21.563Z,47.55
2023-01-29T10:16:12.845Z,46.42
2023-01-29T10:19:02.844Z,46.31
2023-01-29T10:21:51.642Z,47.10
2023-01-29T10:24:32.577Z,46.66
2023-01-29T10:27:02.449Z,46.69
2023-01-29T10:29:33.253Z,46.37
2023-01-29T10:32:06.093Z,46.23
2023-01-29T10:34:42.605Z,45.98
2023-01-29T10:37:19.573Z,45.54
2023-01-29T10:39:48.211Z,45.08
2023-01-29T10:42:35.466Z,46.10
2023-01-29T10:45:19.179Z,45.34
2023-01-29T10:48:22.343Z,45.01
2023-01-29T10:50:57.728Z,45.41
2023-01-29T10:53:49.081Z,45.64
2023-01-29T10:56:35.086Z,45.37
2023-01-29T10:59:10.702Z,44.61
2023-01-29T11:01:39.414Z,44.01
2023-01-29T11:04:08.195Z,44.26
2023-01-29T11:06:38.261Z,44.30
2023-01-29T11:09:20.852Z,44.58
2023-01-29T11:11:53.811Z,44.14
2023-01-29T11:14:26.097Z,43.49
2023-01-29T11:16:54.800Z,44.02
2023-01-29T11:19:41.543Z,43.04
2023-01-29T11:22:15.216Z,42.81
2023-01-29T11:24:45.842Z,43.41
2023-01-29T11:27:26.189Z,43.06
2023-01-29T11:29:55.279Z,41.13
2023-01-29T11:32:29.832Z,42.28
2023-01-29T11:35:00.808Z,42.44
2023-01-29T11:37:39.779Z,42.25
2023-01-29T11:40:39.262Z,41.40
2023-01-29T11:43:29.530Z,41.92
2023-01-29T11:46:01.902Z,41.99
2023-01-29T11:48:41.952Z,41.39
2023-01-29T11:51:13.875Z,40.62
2023-01-29T11:53:45.080Z,40.63
2023-01-29T11:56:28.477Z,40.95
2023-01-29T11:58:59.103Z,40.77
2023-01-29T12:01:33.698Z,40.85
2023-01-29T12:04:02.955Z,39.74
2023-01-29T12:06:36.608Z,40.39
2023-01-29T12:09:15.457Z,40.17
2023-01-29T12:11:45.965Z,40.87
2023-01-29T12:14:33.708Z,40.09
2023-01-29T12:17:08.980Z,40.63
2023-01-29T12:19:43.033Z,39.85
2023-01-29T12:22:18.769Z,39.82
2023-01-29T12:24:54.303Z,39.75
2023-01-29T12:27:28.258Z,40.56
2023-01-29T12:30:03.719Z,40.54
2023-01-29T12:32:41.101Z,40.54
2023-01-29T12:35:16.478Z,40.58
2023-01-29T12:37:55.469Z,40.29
2023-01-29T12:40:29.972Z,40.13
2023-01-29T12:43:05.993Z,40.40
2023-01-29T12:45:38.060Z,40.14
2023-01-29T12:48:09.917Z,40.99
2023-01-29T12:50:39.865Z,40.89
2023-01-29T12:53:22.180Z,40.32
2023-01-29T12:55:55.691Z,40.29
2023-01-29T12:58:30.912Z,40.66
2023-01-29T13:01:07.812Z,40.77
2023-01-29T13:03:46.917Z,40.36
2023-01-29T13:06:19.691Z,40.62
2023-01-29T13:08:54.022Z,40.52
2023-01-29T13:11:27.530Z,40.47
2023-01-29T13:14:02.570Z,41.25
2023-01-29T13:16:37.661Z,40.45
2023-01-29T13:19:16.288Z,40.82
2023-01-29T13:21:46.537Z,40.59
2023-01-29T13:24:20.292Z,39.85
2023-01-29T13:26:50.108Z,40.64
2023-01-29T13:29:25.559Z,39.89
2023-01-29T13:31:55.677Z,39.20
2023-01-29T13:34:26.264Z,39.55
2023-01-29T13:36:58.613Z,40.41
2023-01-29T13:39:31.098Z,40.53
2023-01-29T13:42:01.418Z,39.91
2023-01-29T13:44:35.035Z,39.82
2023-01-29T13:47:09.091Z,39.97
2023-01-29T13:49:41.990Z,40.17
2023-01-29T13:52:22.680Z,40.41
2023-01-29T13:54:55.327Z,40.93
2023-01-29T13:57:49.964Z,40.71
2023-01-29T14:01:01.749Z,40.97
2023-01-29T14:04:08.396Z,40.05
2023-01-29T14:06:51.146Z,40.09
2023-01-29T14:09:34.464Z,40.05
2023-01-29T14:12:03.392Z,40.50
2023-01-29T14:15:04.426Z,39.99
2023-01-29T14:17:40.323Z,40.81
2023-01-29T14:20:45.131Z,40.24
2023-01-29T14:23:51.569Z,40.18
2023-01-29T14:26:43.068Z,40.15
2023-01-29T14:29:34.721Z,40.39
2023-01-29T14:32:20.639Z,40.71
2023-01-29T14:34:52.210Z,40.44
2023-01-29T14:37:44.386Z,39.93
2023-01-29T14:40:32.008Z,40.04
2023-01-29T14:43:20.311Z,40.52
2023-01-29T14:45:54.554Z,40.75
2023-01-29T14:48:58.690Z,40.26
2023-01-29T14:51:37.830Z,40.78
2023-01-29T14:54:20.553Z,40.39
2023-01-29T14:56:58.879Z,40.80
2023-01-29T14:59:33.616Z,40.33
2023-01-29T15:02:06.745Z,40.07
2023-01-29T15:04:42.114Z,39.82
2023-01-29T15:07:24.850Z,40.77
2023-01-29T15:10:13.538Z,39.69
2023-01-29T15:12:53.476Z,40.43
2023-01-29T15:15:31.980Z,40.55
2023-01-29T15:18:06.892Z,40.85
2023-01-29T15:20:37.510Z,41.15
2023-01-29T15:23:24.942Z,40.45
2023-01-29T15:25:58.647Z,40.74
2023-01-29T15:28:32.213Z,41.02
2023-01-29T15:31:03.238Z,40.75
2023-01-29T15:33:34.736Z,40.58
2023-01-29T15:36:07.901Z,41.12
2023-01-29T15:38:37.492Z,41.10
2023-01-29T15:41:19.752Z,40.79
2023-01-29T15:43:50.675Z,41.10
2023-01-29T15:46:26.384Z,41.56
2023-01-29T15:48:56.927Z,41.86
2023-01-29T15:51:27.752Z,41.88
2023-01-29T15:53:59.178Z,41.96
2023-01-29T15:56:32.602Z,41.74
2023-01-29T15:59:09.259Z,42.20
2023-01-29T16:01:38.506Z,42.07
2023-01-29T16:04:07.501Z,42.18
2023-01-29T16:06:39.288Z,42.30
2023-01-29T16:09:09.508Z,42.81
2023-01-29T16:11:40.492Z,43.01
2023-01-29T16:14:09.679Z,43.14
2023-01-29T16:16:38.958Z,42.62
2023-01-29T16:19:15.632Z,43.26
2023-01-29T16:21:46.220Z,42.99
2023-01-29T16:24:22.942Z,43.63
2023-01-29T16:26:57.907Z,44.11
2023-01-29T16:29:33.015Z,44.15
2023-01-29T16:32:03.224Z,44.05
2023-01-29T16:34:35.701Z,44.75
2023-01-29T16:37:08.018Z,45.31
2023-01-29T16:39:40.916Z,46.06
2023-01-29T16:42:26.919Z,45.78
2023-01-29T16:45:01.212Z,46.17
2023-01-29T16:47:32.749Z,46.33
2023-01-29T16:50:03.470Z,46.72
2023-01-29T16:52:33.290Z,46.44
2023-01-29T16:55:17.100Z,46.85
2023-01-29T16:57:52.908Z,47.22
2023-01-29T17:00:25.005Z,46.96
2023-01-29T17:02:56.260Z,47.45
2023-01-29T17:05:29.351Z,47.30
2023-01-29T17:07:59.633Z,47.65
2023-01-29T17:10:30.422Z,47.44
2023-01-29T17:13:04.115Z,47.69
2023-01-29T17:15:36.141Z,47.81
2023-01-29T17:18:05.646Z,48.18
2023-01-29T17:20:34.414Z,48.88
2023-01-29T17:23:03.089Z,49.23
2023-01-29T17:25:31.660Z,49.25
2023-01-29T17:28:04.138Z,50.36
2023-01-29T17:30:35.370Z,50.09
2023-01-29T17:33:12.506Z,49.97
2023-01-29T17:35:42.397Z,50.32
2023-01-29T17:38:24.339Z,50.57
2023-01-29T17:40:57.860Z,50.92
2023-01-29T17:43:27.988Z,50.38
2023-01-29T17:45:56.949Z,51.18
2023-01-29T17:48:26.755Z,50.97
2023-01-29T17:50:57.168Z,51.49
2023-01-29T17:53:30.487Z,53.00
2023-01-29T17:56:05.459Z,53.28
2023-01-29T17:58:35.494Z,53.42
2023-01-29T18:01:05.378Z,53.28
2023-01-29T18:03:36.815Z,53.61
2023-01-29T18:06:08.754Z,52.69
2023-01-29T18:08:39.666Z,53.24
2023-01-29T18:11:08.257Z,52.63
2023-01-29T18:13:38.254Z,52.69
2023-01-29T18:16:07.367Z,53.40
2023-01-29T18:18:35.895Z,53.60
2023-01-29T18:21:04.841Z,53.88
2023-01-29T18:23:33.517Z,54.53
2023-01-29T18:26:02.090Z,54.80
2023-01-29T18:28:31.607Z,55.74
2023-01-29T18:31:03.071Z,56.82
2023-01-29T18:33:31.803Z,56.55
2023-01-29T18:36:00.731Z,56.24
2023-01-29T18:38:29.605Z,56.82
2023-01-29T18:41:04.842Z,57.34
2023-01-29T18:43:33.515Z,57.39
2023-01-29T18:46:03.432Z,57.66
2023-01-29T18:48:32.357Z,57.90
2023-01-29T18:51:01.234Z,57.76
2023-01-29T18:53:29.865Z,57.99
2023-01-29T18:55:59.869Z,57.90
2023-01-29T18:58:36.310Z,58.12
2023-01-29T19:01:10.161Z,58.45
2023-01-29T19:03:39.327Z,58.96
2023-01-29T19:06:14.008Z,59.24
2023-01-29T19:08:49.517Z,59.58
2023-01-29T19:11:18.539Z,59.67
2023-01-29T19:13:48.186Z,60.03
2023-01-29T19:16:18.603Z,60.11
2023-01-29T19:18:47.104Z,60.30
2023-01-29T19:21:19.172Z,60.59
2023-01-29T19:23:49.490Z,60.23
2023-01-29T19:26:18.292Z,59.69
2023-01-29T19:28:46.847Z,59.82
2023-01-29T19:31:15.470Z,59.87
2023-01-29T19:33:45.392Z,60.38
2023-01-29T19:36:13.990Z,60.65
2023-01-29T19:38:43.322Z,60.69
2023-01-29T19:41:11.941Z,60.91
2023-01-29T19:43:42.111Z,60.99
2023-01-29T19:46:11.794Z,61.09
2023-01-29T19:48:40.547Z,61.24
2023-01-29T19:51:28.237Z,60.52
2023-01-29T19:54:02.441Z,60.42
2023-01-29T19:56:31.039Z,60.88
2023-01-29T19:58:59.564Z,60.86
2023-01-29T20:01:34.130Z,61.05
2023-01-29T20:04:02.876Z,60.88
2023-01-29T20:06:32.792Z,60.90
2023-01-29T20:09:03.160Z,60.64
2023-01-29T20:11:32.694Z,60.64
2023-01-29T20:14:02.212Z,60.24
2023-01-29T20:16:31.334Z,60.66
2023-01-29T20:19:13.307Z,60.02
2023-01-29T20:21:49.007Z,60.12
2023-01-29T20:24:18.233Z,60.50
2023-01-29T20:26:47.367Z,60.91
2023-01-29T20:29:16.017Z,61.34
2023-01-29T20:31:44.532Z,61.80
2023-01-29T20:34:13.082Z,61.46
2023-01-29T20:36:41.656Z,61.93
2023-01-29T20:39:11.641Z,62.12
2023-01-29T20:41:41.812Z,61.90
2023-01-29T20:44:10.378Z,61.87
2023-01-29T20:46:39.523Z,61.91
2023-01-29T20:49:09.213Z,62.17
2023-01-29T20:51:37.975Z,62.38
2023-01-29T20:54:06.589Z,62.68
2023-01-29T20:56:42.243Z,62.68
2023-01-29T20:59:12.155Z,62.57
2023-01-29T21:01:40.600Z,62.59
2023-01-29T21:04:09.164Z,62.98
2023-01-29T21:06:37.824Z,62.67
2023-01-29T21:09:06.605Z,62.19
2023-01-29T21:11:36.535Z,61.60
2023-01-29T21:14:05.223Z,61.24
2023-01-29T21:16:33.835Z,61.59
2023-01-29T21:19:02.451Z,62.26
2023-01-29T21:21:31.062Z,62.48
2023-01-29T21:23:59.541Z,62.41
2023-01-29T21:26:28.135Z,62.42
2023-01-29T21:28:58.142Z,62.82
2023-01-29T21:31:26.678Z,63.08
2023-01-29T21:33:55.143Z,63.18
2023-01-29T21:36:23.639Z,63.17
2023-01-29T21:38:52.198Z,63.33
2023-01-29T21:41:40.700Z,62.94
2023-01-29T21:44:09.898Z,62.52
2023-01-29T21:46:38.417Z,61.53
2023-01-29T21:49:07.255Z,61.75
2023-01-29T21:51:37.242Z,62.19
2023-01-29T21:54:06.149Z,62.14
2023-01-29T21:56:35.795Z,61.84
2023-01-29T21:59:04.550Z,61.94
2023-01-29T22:01:37.803Z,62.01
2023-01-29T22:04:08.317Z,61.53
2023-01-29T22:06:36.807Z,61.81
2023-01-29T22:09:05.564Z,61.28
2023-01-29T22:11:34.279Z,61.71
2023-01-29T22:14:02.775Z,61.84
2023-01-29T22:16:31.344Z,62.27
2023-01-29T22:19:01.489Z,62.46
2023-01-29T22:21:36.017Z,61.96
2023-01-29T22:24:05.256Z,62.21
2023-01-29T22:26:33.850Z,62.11
2023-01-29T22:29:02.467Z,62.31
2023-01-29T22:31:30.991Z,61.87
2023-01-29T22:34:00.858Z,62.26
2023-01-29T22:36:29.391Z,62.21
2023-01-29T22:38:57.968Z,62.43
2023-01-29T22:41:26.661Z,62.34
2023-01-29T22:43:55.176Z,62.10
2023-01-29T22:46:23.791Z,62.61
2023-01-29T22:48:52.379Z,62.51
2023-01-29T22:51:22.547Z,61.98
2023-01-29T22:53:52.627Z,62.24
2023-01-29T22:56:22.003Z,62.03
2023-01-29T22:58:52.306Z,59.83
2023-01-29T23:01:30.270Z,61.10
2023-01-29T23:04:04.857Z,61.50
2023-01-29T23:06:34.893Z,61.56
2023-01-29T23:09:03.379Z,62.05
2023-01-29T23:11:31.867Z,61.83
2023-01-29T23:14:00.440Z,61.75
2023-01-29T23:16:34.314Z,61.55
2023-01-29T23:19:06.966Z,62.00
2023-01-29T23:21:40.033Z,61.56
2023-01-29T23:24:12.261Z,61.97
2023-01-29T23:27:00.882Z,62.45
2023-01-29T23:29:31.855Z,62.23
2023-01-29T23:32:00.935Z,62.60
2023-01-29T23:34:29.477Z,62.66
2023-01-29T23:36:59.866Z,62.29
2023-01-29T23:39:28.339Z,62.38
2023-01-29T23:41:56.901Z,62.64
2023-01-29T23:44:25.673Z,62.18
2023-01-29T23:46:54.315Z,62.10
2023-01-29T23:49:23.244Z,62.06
2023-01-29T23:51:52.446Z,62.35
2023-01-29T23:54:23.104Z,62.49
2023-01-29T23:56:51.740Z,62.44
2023-01-29T23:59:20.694Z,62.24
